Time;durP1;ratioP1;P1;durP2;ratioP2;P2;SDS_P1;SDS_P2;PMS_P1;PMS_P2;Temp;Humidity;BMP_temperature;BMP_pressure;BME280_temperature;BME280_humidity;BME280_pressure;Samples;Min_cycle;Max_cycle;Signal;HPM_P1;HPM_P2
2022/12/08 00:00:17;;;;;;;;;86.00;58.33;;;;;-0.92;100.00;99515.97;6310116;20;3658762;-51
2022/12/08 00:02:47;;;;;;;;;83.33;63.67;;;;;-0.80;100.00;99520.13;6315678;20;3645060;-50
2022/12/08 00:10:53;;;;;;;;;78.67;58.00;;;;;-0.49;100.00;99526.56;6313329;20;2883733;-48
2022/12/08 00:13:22;;;;;;;;;80.00;64.00;;;;;-0.75;100.00;99513.88;6314867;20;2878414;-50
2022/12/08 00:15:51;;;;;;;;;90.33;65.00;;;;;-0.75;100.00;99518.28;6282401;20;3662784;-49
2022/12/08 00:18:21;;;;;;;;;87.00;63.33;;;;;-0.68;100.00;99509.38;6313885;20;3655904;-51
2022/12/08 00:20:56;;;;;;;;;88.67;64.00;;;;;-0.63;100.00;99512.78;6313596;20;3660805;-52
2022/12/08 00:23:26;;;;;;;;;87.00;62.33;;;;;-0.35;100.00;99518.38;6313444;20;3659630;-49
2022/12/08 00:25:56;;;;;;;;;78.00;59.67;;;;;-0.58;100.00;99504.75;6313672;20;2878453;-49
2022/12/08 00:28:25;;;;;;;;;86.67;63.33;;;;;-0.56;100.00;99502.97;6313363;20;3647172;-49
2022/12/08 00:30:55;;;;;;;;;80.33;61.33;;;;;-0.38;100.00;99507.88;6313023;20;2877871;-49
2022/12/08 00:33:23;;;;;;;;;73.50;56.00;;;;;-0.40;100.00;99509.69;6314314;20;2885749;-51
2022/12/08 00:35:53;;;;;;;;;82.00;59.00;;;;;-0.25;100.00;99512.00;6278298;20;3646180;-53
2022/12/08 00:38:22;;;;;;;;;69.67;53.33;;;;;-0.06;100.00;99519.53;6312177;20;2876400;-51
2022/12/08 00:40:52;;;;;;;;;76.00;55.67;;;;;0.04;100.00;99520.22;6309545;20;3636949;-48
2022/12/08 00:43:21;;;;;;;;;69.50;53.50;;;;;-0.07;100.00;99521.31;6312197;20;2861906;-49
2022/12/08 00:45:50;;;;;;;;;77.33;59.00;;;;;-0.18;100.00;99530.38;6279176;20;2889990;-48
2022/12/08 00:48:20;;;;;;;;;77.67;60.33;;;;;-0.44;100.00;99529.13;6313139;20;2875384;-52
2022/12/08 00:50:49;;;;;;;;;75.67;52.67;;;;;-0.40;100.00;99535.19;6307016;20;2877505;-48
2022/12/08 00:53:18;;;;;;;;;71.00;56.50;;;;;-0.31;100.00;99535.88;6312886;20;2872146;-52
2022/12/08 00:55:47;;;;;;;;;82.67;59.00;;;;;-0.31;100.00;99530.63;6280973;20;3654412;-51
2022/12/08 00:58:17;;;;;;;;;76.33;59.67;;;;;-0.17;100.00;99542.66;6312397;20;2885894;-53
2022/12/08 01:00:46;;;;;;;;;78.67;55.00;;;;;-0.16;100.00;99539.09;6312742;20;3649204;-52
2022/12/08 01:03:16;;;;;;;;;74.33;54.67;;;;;-0.17;100.00;99535.59;6310280;20;2889028;-53
2022/12/08 01:05:45;;;;;;;;;76.33;57.67;;;;;-0.02;100.00;99545.84;6316993;20;3622124;-49
2022/12/08 01:08:14;;;;;;;;;75.67;58.00;;;;;0.07;100.00;99541.28;6278388;20;2885787;-51
2022/12/08 01:10:43;;;;;;;;;72.00;56.00;;;;;0.19;100.00;99533.97;6312901;20;2869073;-54
2022/12/08 01:13:12;;;;;;;;;73.67;54.67;;;;;0.26;100.00;99536.44;6278009;20;3637827;-51
2022/12/08 01:15:42;;;;;;;;;77.67;56.00;;;;;0.19;100.00;99528.69;6312998;20;3643138;-52
2022/12/08 01:18:11;;;;;;;;;72.00;54.33;;;;;0.11;100.00;99527.97;6312091;20;2877552;-51
2022/12/08 01:20:41;;;;;;;;;73.33;58.33;;;;;0.03;100.00;99535.19;6316391;20;2875427;-51
2022/12/08 01:23:10;;;;;;;;;77.33;57.67;;;;;-0.04;100.00;99538.84;6319091;20;2883793;-51
2022/12/08 01:25:40;;;;;;;;;72.67;53.00;;;;;0.06;100.00;99534.25;6317149;20;2899338;-49
2022/12/08 01:28:09;;;;;;;;;71.67;55.33;;;;;-0.22;100.00;99530.41;6317020;20;2881547;-50
2022/12/08 01:30:39;;;;;;;;;64.50;51.50;;;;;0.00;100.00;99535.28;6317672;20;2860690;-51
2022/12/08 01:33:07;;;;;;;;;68.50;53.00;;;;;-0.06;100.00;99530.97;6283412;20;2500729;-52
2022/12/08 01:35:35;;;;;;;;;70.00;54.50;;;;;-0.16;100.00;99533.81;6286369;20;2866937;-52
2022/12/08 01:38:05;;;;;;;;;72.67;54.67;;;;;-0.30;100.00;99531.47;6287323;20;2877589;-49
2022/12/08 01:40:34;;;;;;;;;68.50;56.00;;;;;-0.33;100.00;99531.53;6314944;20;2854534;-49
2022/12/08 01:43:03;;;;;;;;;70.67;51.00;;;;;-0.17;100.00;99530.31;6286205;20;2875453;-51
2022/12/08 01:45:33;;;;;;;;;80.33;59.33;;;;;-0.28;100.00;99534.97;6318202;20;2891080;-51
2022/12/08 01:48:11;;;;;;;;;77.33;59.00;;;;;-0.27;100.00;99524.34;6318226;20;3646115;-51
2022/12/08 01:50:42;;;;;;;;;72.67;57.33;;;;;-0.31;100.00;99527.09;6313062;20;2879479;-52
2022/12/08 01:53:26;;;;;;;;;70.00;53.00;;;;;-0.33;100.00;99527.13;6310249;20;2871307;-49
2022/12/08 01:56:10;;;;;;;;;77.50;59.50;;;;;-0.52;100.00;99516.06;6314079;20;2889967;-51
2022/12/08 01:58:46;;;;;;;;;68.50;56.50;;;;;-0.41;100.00;99517.63;6280908;20;2860813;-50
2022/12/08 02:01:17;;;;;;;;;74.00;57.00;;;;;-0.52;100.00;99512.56;6284195;20;2884648;-49
2022/12/08 02:04:01;;;;;;;;;71.67;57.00;;;;;-0.59;100.00;99518.84;6313854;20;2874310;-51
2022/12/08 02:06:36;;;;;;;;;68.50;57.50;;;;;-0.70;100.00;99513.78;6314581;20;2868048;-51
2022/12/08 02:09:06;;;;;;;;;82.00;58.67;;;;;-0.88;100.00;99510.59;6283172;20;3641953;-50
2022/12/08 02:11:36;;;;;;;;;79.67;57.33;;;;;-0.77;100.00;99513.03;6312263;20;3646083;-52
2022/12/08 02:14:08;;;;;;;;;77.67;58.67;;;;;-0.72;100.00;99513.81;6313941;20;3634630;-50
2022/12/08 02:17:33;;;;;;;;;76.00;57.50;;;;;-0.75;100.00;99511.22;6315414;20;2874290;-51
2022/12/08 02:20:40;;;;;;;;;77.50;57.00;;;;;-0.59;100.00;99503.91;6282687;20;2877395;-51
2022/12/08 02:23:40;;;;;;;;;77.67;57.33;;;;;-0.41;100.00;99502.69;6280401;20;2894128;-50
2022/12/08 02:26:48;;;;;;;;;77.33;59.33;;;;;-0.30;100.00;99500.69;6310748;20;2887835;-51
2022/12/08 02:30:23;;;;;;;;;78.33;58.00;;;;;-0.18;100.00;99498.72;6310996;20;2883803;-49
2022/12/08 02:33:13;;;;;;;;;80.00;59.33;;;;;-0.14;100.00;99497.72;6313662;20;3644044;-52
2022/12/08 02:36:42;;;;;;;;;83.00;60.33;;;;;-0.16;100.00;99497.75;6316252;20;3656538;-49
2022/12/08 02:40:15;;;;;;;;;71.67;56.00;;;;;-0.07;100.00;99507.25;6310837;20;2887982;-47
2022/12/08 02:43:08;;;;;;;;;74.33;57.00;;;;;0.07;100.00;99506.97;6314206;20;2886877;-50
2022/12/08 02:46:13;;;;;;;;;82.00;57.33;;;;;0.00;100.00;99495.69;6312592;20;3647239;-49
2022/12/08 02:48:42;;;;;;;;;73.50;60.00;;;;;-0.10;100.00;99483.59;6311072;20;2874376;-49
2022/12/08 02:51:11;;;;;;;;;78.50;56.00;;;;;0.03;100.00;99486.78;6277893;20;2880537;-50
2022/12/08 02:53:40;;;;;;;;;71.50;57.00;;;;;-0.01;100.00;99488.66;6276741;20;2500311;-49
2022/12/08 02:56:32;;;;;;;;;69.00;56.00;;;;;0.01;100.00;99484.22;6282550;20;2879483;-50
2022/12/08 03:00:09;;;;;;;;;75.33;59.33;;;;;-0.35;100.00;99476.16;6280784;20;2882737;-50
2022/12/08 03:03:54;;;;;;;;;72.00;55.00;;;;;-0.53;100.00;99479.19;6311505;20;3641961;-51
2022/12/08 03:06:32;;;;;;;;;77.50;59.50;;;;;-0.19;100.00;99482.00;6310405;20;2891994;-50
2022/12/08 03:09:51;;;;;;;;;77.33;59.67;;;;;-0.20;100.00;99475.00;6278713;20;3631771;-48
2022/12/08 03:12:52;;;;;;;;;85.33;60.00;;;;;-0.36;100.00;99474.44;6312107;20;3644103;-53
2022/12/08 03:15:22;;;;;;;;;81.00;59.33;;;;;-0.12;100.00;99467.78;6312981;20;3635769;-48
2022/12/08 03:17:57;;;;;;;;;80.00;63.00;;;;;-0.29;100.00;99462.88;6316336;20;3619062;-53
2022/12/08 03:20:29;;;;;;;;;70.50;55.50;;;;;-0.46;100.00;99467.63;6311864;20;2860838;-50
2022/12/08 03:23:05;;;;;;;;;82.33;62.33;;;;;-0.24;100.00;99463.66;6281292;20;2893124;-49
2022/12/08 03:25:45;;;;;;;;;87.00;63.67;;;;;-0.45;100.00;99461.44;6310739;20;3670125;-50
2022/12/08 03:28:15;;;;;;;;;80.67;60.67;;;;;-0.46;100.00;99467.63;6310679;20;2880567;-51
2022/12/08 03:30:49;;;;;;;;;78.00;60.00;;;;;-0.66;100.00;99454.81;6311651;20;3634654;-53
2022/12/08 03:33:32;;;;;;;;;84.33;60.33;;;;;-0.67;100.00;99468.91;6312202;20;2901430;-48
2022/12/08 03:36:04;;;;;;;;;72.50;57.50;;;;;-0.92;100.00;99479.06;6308816;20;2500310;-51
2022/12/08 03:38:43;;;;;;;;;72.00;55.00;;;;;-1.32;100.00;99487.63;6280162;20;2877399;-48
2022/12/08 03:41:19;;;;;;;;;76.67;55.33;;;;;-1.07;100.00;99484.59;6280397;20;3651338;-50
2022/12/08 03:43:57;;;;;;;;;66.00;48.50;;;;;-0.72;100.00;99494.50;6312800;20;2861249;-48
2022/12/08 03:46:29;;;;;;;;;72.50;56.00;;;;;-0.68;100.00;99490.91;6286308;20;2886751;-48
2022/12/08 03:48:57;;;;;;;;;65.50;49.00;;;;;-0.64;100.00;99491.72;6277687;20;2877366;-52
2022/12/08 03:51:26;;;;;;;;;56.50;48.00;;;;;-0.59;100.00;99482.81;6276829;20;2872289;-48
2022/12/08 03:53:54;;;;;;;;;62.00;53.50;;;;;-0.37;100.00;99495.56;6278138;20;2491581;-49
2022/12/08 03:56:43;;;;;;;;;75.50;57.00;;;;;-0.33;100.00;99495.47;6283217;20;2885756;-49
2022/12/08 03:59:12;;;;;;;;;71.00;55.00;;;;;-0.10;100.00;99491.50;6279993;20;2887800;-50
2022/12/08 04:01:42;;;;;;;;;102.00;72.33;;;;;-0.15;100.00;99490.72;6310929;20;3684696;-49
2022/12/08 04:04:11;;;;;;;;;106.67;80.33;;;;;-0.38;100.00;99494.69;6279717;20;3693032;-48
2022/12/08 04:06:41;;;;;;;;;131.67;93.67;;;;;-0.15;100.00;99485.44;6283064;20;3711851;-49
2022/12/08 04:09:11;;;;;;;;;129.67;106.33;;;;;-0.09;100.00;99491.44;6279405;20;3708612;-52
2022/12/08 04:11:40;;;;;;;;;74.50;53.00;;;;;-0.93;100.00;99488.72;6282045;20;2891968;-49
2022/12/08 04:14:09;;;;;;;;;76.33;58.33;;;;;-0.69;100.00;99484.75;6280738;20;2883627;-50
2022/12/08 04:16:39;;;;;;;;;97.67;68.67;;;;;-0.77;100.00;99484.03;6313479;20;3655473;-51
2022/12/08 04:19:07;;;;;;;;;89.00;62.00;;;;;-0.83;100.00;99489.41;6311440;20;2757595;-50
2022/12/08 04:21:37;;;;;;;;;81.00;60.33;;;;;-0.79;100.00;99475.31;6313901;20;2899376;-50
2022/12/08 04:24:07;;;;;;;;;97.00;68.00;;;;;-0.75;100.00;99486.66;6312134;20;3645156;-52
2022/12/08 04:26:37;;;;;;;;;83.33;64.00;;;;;-0.67;100.00;99484.72;6310979;20;3629445;-50
2022/12/08 04:29:06;;;;;;;;;77.00;61.67;;;;;-0.33;100.00;99484.06;6311173;20;2881573;-47
2022/12/08 04:31:36;;;;;;;;;78.67;60.00;;;;;-0.24;100.00;99483.84;6315145;20;3648184;-49
2022/12/08 04:34:06;;;;;;;;;83.67;61.33;;;;;-0.46;100.00;99476.38;6311238;20;2896268;-51
2022/12/08 04:36:35;;;;;;;;;85.00;65.00;;;;;-0.52;100.00;99475.66;6313367;20;3635708;-51
2022/12/08 04:39:05;;;;;;;;;86.00;66.67;;;;;-0.52;100.00;99479.16;6311463;20;3646257;-50
2022/12/08 04:41:35;;;;;;;;;90.33;69.00;;;;;-0.19;100.00;99470.56;6308500;20;3657585;-50
2022/12/08 04:44:04;;;;;;;;;90.67;68.00;;;;;-0.33;100.00;99476.16;6313461;20;3654488;-48
2022/12/08 04:46:34;;;;;;;;;79.33;61.67;;;;;-0.17;100.00;99474.06;6310446;20;3635689;-49
2022/12/08 04:49:11;;;;;;;;;83.33;64.00;;;;;-0.02;100.00;99465.81;6308895;20;3649259;-51
2022/12/08 04:51:40;;;;;;;;;81.67;62.67;;;;;-0.12;100.00;99474.81;6308571;20;3630515;-52
2022/12/08 04:54:09;;;;;;;;;76.00;60.00;;;;;-0.17;100.00;99468.78;6309286;20;2759783;-50
2022/12/08 04:56:39;;;;;;;;;82.67;62.67;;;;;-0.26;100.00;99464.56;6278723;20;3648196;-54
2022/12/08 04:59:09;;;;;;;;;85.67;65.33;;;;;-0.22;100.00;99471.50;6312173;20;3630483;-51
2022/12/08 05:01:38;;;;;;;;;91.33;70.67;;;;;-0.05;100.00;99460.59;6308768;20;3637936;-54
2022/12/08 05:04:09;;;;;;;;;84.33;62.00;;;;;0.01;100.00;99462.25;6309929;20;3652449;-53
2022/12/08 05:06:38;;;;;;;;;81.33;61.33;;;;;-0.06;100.00;99464.13;6303080;20;3636734;-49
2022/12/08 05:09:09;;;;;;;;;82.67;60.67;;;;;-0.31;100.00;99472.56;6302100;20;3650400;-49
2022/12/08 05:11:40;;;;;;;;;79.00;64.00;;;;;-0.07;100.00;99473.81;6312729;20;2864237;-51
2022/12/08 05:14:18;;;;;;;;;96.00;69.33;;;;;0.05;100.00;99464.75;6276088;20;2892142;-51
2022/12/08 05:16:48;;;;;;;;;97.33;70.33;;;;;0.04;100.00;99468.31;6312393;20;3639842;-50
2022/12/08 05:19:18;;;;;;;;;96.33;71.00;;;;;-0.22;100.00;99459.19;6312629;20;3653492;-49
2022/12/08 05:21:48;;;;;;;;;90.33;68.33;;;;;0.08;100.00;99464.69;6308308;20;3645095;-53
2022/12/08 05:24:17;;;;;;;;;88.67;65.33;;;;;-0.15;100.00;99461.72;6312019;20;3649377;-50
2022/12/08 05:26:47;;;;;;;;;88.00;63.33;;;;;-0.17;100.00;99463.50;6312249;20;3673176;-52
2022/12/08 05:29:16;;;;;;;;;89.67;63.33;;;;;-0.10;100.00;99465.13;6276295;20;3663800;-49
2022/12/08 05:31:46;;;;;;;;;98.00;69.50;;;;;-0.25;100.00;99469.81;6311197;20;3608611;-48
2022/12/08 05:34:15;;;;;;;;;96.33;71.00;;;;;-0.07;100.00;99471.19;6313723;20;3662740;-48
2022/12/08 05:36:45;;;;;;;;;102.33;71.33;;;;;-0.01;100.00;99468.41;6310699;20;3682633;-53
2022/12/08 05:39:15;;;;;;;;;95.67;68.67;;;;;-0.01;100.00;99464.91;6280113;20;3645071;-48
2022/12/08 05:41:44;;;;;;;;;113.67;88.67;;;;;-0.18;100.00;99462.63;6310228;20;3708622;-48
2022/12/08 05:44:14;;;;;;;;;126.00;97.67;;;;;0.15;100.00;99466.28;6278764;20;3701419;-51
2022/12/08 05:46:44;;;;;;;;;92.67;68.33;;;;;0.09;100.00;99455.88;6282178;20;3638864;-57
2022/12/08 05:49:13;;;;;;;;;82.00;60.00;;;;;-0.05;100.00;99452.69;6311720;20;3646185;-54
2022/12/08 05:51:42;;;;;;;;;67.50;52.50;;;;;-0.10;100.00;99457.19;6309288;20;2863969;-52
2022/12/08 05:54:10;;;;;;;;;73.50;53.50;;;;;-0.41;100.00;99457.84;6275041;20;2500428;-51
2022/12/08 05:56:40;;;;;;;;;75.67;58.00;;;;;-0.40;100.00;99462.22;6280717;20;2880505;-48
2022/12/08 05:59:09;;;;;;;;;80.33;59.00;;;;;-0.23;100.00;99457.44;6311845;20;3644041;-49
2022/12/08 06:01:39;;;;;;;;;118.33;97.00;;;;;-0.33;100.00;99445.34;6306209;20;3693064;-48
2022/12/08 06:04:09;;;;;;;;;131.00;107.00;;;;;-0.13;100.00;99446.69;6278477;20;3706538;-50
2022/12/08 06:06:39;;;;;;;;;119.33;89.00;;;;;-0.09;100.00;99443.09;6283337;20;3704515;-52
2022/12/08 06:09:11;;;;;;;;;141.25;113.50;;;;;-0.27;100.00;99442.56;6284560;20;4490872;-55
2022/12/08 06:11:41;;;;;;;;;121.67;98.33;;;;;-0.15;100.00;99443.25;6285511;20;3698156;-51
2022/12/08 06:14:12;;;;;;;;;87.33;67.67;;;;;-0.12;100.00;99453.72;6282074;20;3648187;-52
2022/12/08 06:16:41;;;;;;;;;81.00;62.00;;;;;0.14;100.00;99456.63;6315943;20;2879496;-52
2022/12/08 06:19:11;;;;;;;;;100.00;78.67;;;;;0.03;100.00;99471.84;6314425;20;3679415;-48
2022/12/08 06:21:40;;;;;;;;;92.33;69.00;;;;;0.10;100.00;99468.16;6282775;20;3651309;-48
2022/12/08 06:24:10;;;;;;;;;90.67;71.33;;;;;0.10;100.00;99468.16;6316222;20;3640900;-53
2022/12/08 06:26:40;;;;;;;;;95.67;70.00;;;;;0.09;100.00;99470.84;6315599;20;3658594;-47
2022/12/08 06:29:10;;;;;;;;;97.33;71.00;;;;;0.17;100.00;99472.41;6314228;20;3665903;-51
2022/12/08 06:31:40;;;;;;;;;89.33;64.33;;;;;-0.20;100.00;99469.72;6316281;20;3663820;-49
2022/12/08 06:34:09;;;;;;;;;97.33;73.67;;;;;0.11;100.00;99475.19;6315167;20;3659653;-47
2022/12/08 06:36:39;;;;;;;;;93.67;70.00;;;;;-0.05;100.00;99479.06;6315274;20;3650334;-50
2022/12/08 06:39:09;;;;;;;;;97.67;74.67;;;;;-0.01;100.00;99486.00;6316670;20;3664839;-49
2022/12/08 06:42:42;;;;;;;;;96.00;75.33;;;;;0.06;100.00;99481.47;6316091;20;3655444;-49
2022/12/08 06:44:28;;;;;;;;;100.67;75.33;;;;;0.14;100.00;99476.88;6316485;20;3684664;-50
2022/12/08 06:46:58;;;;;;;;;98.67;76.67;;;;;0.34;100.00;99479.06;6284756;20;3667102;-49
2022/12/08 06:49:28;;;;;;;;;99.33;78.00;;;;;0.16;100.00;99483.88;6281273;20;3679412;-48
2022/12/08 06:51:57;;;;;;;;;98.00;76.67;;;;;0.21;100.00;99489.91;6285817;20;3683006;-50
2022/12/08 06:54:27;;;;;;;;;100.67;76.33;;;;;0.20;100.00;99485.53;6282722;20;3696110;-50
2022/12/08 06:56:57;;;;;;;;;98.67;80.33;;;;;0.40;100.00;99484.22;6284951;20;3680876;-51
2022/12/08 06:59:26;;;;;;;;;95.33;76.33;;;;;0.26;100.00;99486.28;6277908;20;3656492;-47
2022/12/08 07:01:56;;;;;;;;;91.33;69.33;;;;;0.40;100.00;99486.84;6316090;20;3656551;-52
2022/12/08 07:04:26;;;;;;;;;98.00;75.67;;;;;0.65;100.00;99492.41;6313557;20;3652391;-53
2022/12/08 07:06:55;;;;;;;;;96.00;70.00;;;;;0.29;100.00;99488.84;6315159;20;3651329;-52
2022/12/08 07:09:25;;;;;;;;;96.00;73.33;;;;;0.42;100.00;99490.31;6314812;20;3673225;-50
2022/12/08 07:11:54;;;;;;;;;97.00;70.67;;;;;0.54;100.00;99494.44;6314400;20;3650295;-51
2022/12/08 07:14:24;;;;;;;;;94.33;70.00;;;;;0.55;100.00;99494.38;6315929;20;3650426;-51
2022/12/08 07:16:54;;;;;;;;;91.00;69.00;;;;;0.43;100.00;99499.97;6316092;20;3638823;-53
2022/12/08 07:19:26;;;;;;;;;94.00;68.33;;;;;0.35;100.00;99491.38;6312515;20;3644016;-51
2022/12/08 07:21:55;;;;;;;;;90.00;67.00;;;;;0.48;100.00;99495.47;6315971;20;3643002;-49
2022/12/08 07:24:25;;;;;;;;;92.67;70.33;;;;;0.32;100.00;99499.38;6315461;20;3640921;-52
2022/12/08 07:26:54;;;;;;;;;78.33;58.67;;;;;0.79;100.00;99498.22;6317136;20;2888852;-50
2022/12/08 07:29:24;;;;;;;;;86.67;64.00;;;;;0.70;100.00;99490.53;6313852;20;3651821;-51
2022/12/08 07:31:54;;;;;;;;;79.33;61.67;;;;;0.65;100.00;99492.41;6313814;20;3631539;-50
2022/12/08 07:34:24;;;;;;;;;82.67;62.67;;;;;0.78;100.00;99491.19;6315450;20;2889512;-50
2022/12/08 07:36:53;;;;;;;;;98.33;79.67;;;;;0.76;100.00;99500.94;6313877;20;3674264;-52
2022/12/08 07:39:23;;;;;;;;;95.00;73.00;;;;;0.82;100.00;99502.56;6281674;20;3670204;-51
2022/12/08 07:41:52;;;;;;;;;91.00;68.00;;;;;1.03;100.00;99493.22;6280796;20;2779470;-50
2022/12/08 07:44:23;;;;;;;;;120.75;106.50;;;;;1.01;100.00;99492.41;6284888;20;4483586;-53
2022/12/08 07:46:52;;;;;;;;;106.33;87.33;;;;;0.93;100.00;99489.09;6312542;20;3682581;-49
2022/12/08 07:49:22;;;;;;;;;112.33;96.00;;;;;0.73;100.00;99492.22;6281709;20;3686767;-51
2022/12/08 07:51:52;;;;;;;;;112.00;97.67;;;;;1.00;100.00;99491.53;6283478;20;3678377;-48
2022/12/08 07:54:21;;;;;;;;;102.33;87.00;;;;;0.97;100.00;99491.59;6283023;20;3675243;-49
2022/12/08 07:56:51;;;;;;;;;101.67;87.00;;;;;1.02;100.00;99489.69;6279154;20;3687925;-53
2022/12/08 07:59:21;;;;;;;;;97.00;79.33;;;;;1.16;100.00;99491.09;6284417;20;3657529;-48
2022/12/08 08:01:50;;;;;;;;;100.33;82.00;;;;;1.20;100.00;99495.41;6309305;20;3685681;-52
2022/12/08 08:04:40;;;;;;;;;84.00;65.00;;;;;1.51;100.00;99490.16;6282087;20;2888849;-52
2022/12/08 08:07:10;;;;;;;;;123.33;105.00;;;;;1.12;100.00;99489.47;6316174;20;3694035;-54
2022/12/08 08:09:39;;;;;;;;;106.33;87.33;;;;;1.30;100.00;99491.63;6278610;20;3695068;-50
2022/12/08 08:12:09;;;;;;;;;100.00;80.00;;;;;1.64;100.00;99485.41;6281127;20;3675398;-52
2022/12/08 08:15:01;;;;;;;;;93.67;73.67;;;;;1.68;100.00;99484.38;6282235;20;3659738;-50
2022/12/08 08:17:30;;;;;;;;;89.00;66.33;;;;;1.50;100.00;99491.94;6314018;20;3648186;-50
2022/12/08 08:20:00;;;;;;;;;106.67;84.33;;;;;1.90;100.00;99490.81;6313060;20;3697129;-53
2022/12/08 08:22:32;;;;;;;;;102.33;86.67;;;;;2.00;100.00;99498.47;6278523;20;3673189;-53
2022/12/08 08:25:02;;;;;;;;;83.67;64.00;;;;;1.74;100.00;99494.81;6283757;20;3627462;-50
2022/12/08 08:27:32;;;;;;;;;122.00;98.67;;;;;2.32;100.00;99494.84;6311389;20;3701387;-51
2022/12/08 08:30:08;;;;;;;;;110.00;86.00;;;;;2.38;100.00;99487.56;6280363;20;3695057;-49
2022/12/08 08:32:38;;;;;;;;;191.00;135.25;;;;;2.22;100.00;99486.31;6281799;20;4461715;-48
2022/12/08 08:35:08;;;;;;;;;223.25;159.50;;;;;2.06;100.00;99477.13;6312921;20;4470042;-50
2022/12/08 08:37:38;;;;;;;;;277.25;194.00;;;;;2.24;100.00;99481.84;6311424;20;4493109;-53
2022/12/08 08:40:16;;;;;;;;;130.00;102.75;;;;;1.87;100.00;99490.91;6277629;20;4489831;-52
2022/12/08 08:42:46;;;;;;;;;320.75;254.50;;;;;1.91;100.00;99489.03;6315156;20;4494040;-48
2022/12/08 08:45:15;;;;;;;;;112.50;95.75;;;;;1.66;100.00;99491.50;6279843;20;4432556;-54
2022/12/08 08:47:45;;;;;;;;;106.33;91.33;;;;;1.90;100.00;99493.44;6314552;20;3687791;-54
2022/12/08 08:50:14;;;;;;;;;89.67;66.00;;;;;2.46;100.00;99502.38;6279724;20;3655482;-52
2022/12/08 08:52:44;;;;;;;;;85.33;63.67;;;;;2.27;100.00;99488.84;6280990;20;3655573;-54
2022/12/08 08:55:12;;;;;;;;;179.00;133.00;;;;;2.21;100.00;99497.81;6307286;20;1949283;-51
2022/12/08 08:57:42;;;;;;;;;268.67;199.33;;;;;2.53;100.00;99493.31;6283131;20;3717946;-51
2022/12/08 09:00:14;;;;;;;;;178.75;151.25;;;;;2.66;100.00;99492.00;6279272;20;3724341;-51
2022/12/08 09:02:45;;;;;;;;;155.50;128.50;;;;;2.88;100.00;99492.16;6279551;20;4509650;-52
2022/12/08 09:05:15;;;;;;;;;130.50;113.25;;;;;2.99;100.00;99486.50;6281821;20;4490951;-52
2022/12/08 09:07:43;;;;;;;;;185.50;149.00;;;;;2.96;100.00;99481.28;6305663;20;1957629;-49
2022/12/08 09:10:11;;;;;;;;;148.50;129.50;;;;;2.89;100.00;99477.09;6273957;20;1960810;-49
2022/12/08 09:12:41;;;;;;;;;226.33;179.67;;;;;2.66;100.00;99476.09;6280610;20;3716937;-53
2022/12/08 09:15:11;;;;;;;;;129.75;106.75;;;;;2.72;100.00;99467.94;6281533;20;4498208;-50
2022/12/08 09:17:42;;;;;;;;;183.00;145.75;;;;;2.70;100.00;99464.47;6310562;20;4490849;-50
2022/12/08 09:20:10;;;;;;;;;144.00;119.00;;;;;2.85;100.00;99463.97;6273746;20;1954472;-49
2022/12/08 09:22:38;;;;;;;;;123.00;102.00;;;;;2.92;100.00;99461.09;6276461;20;1951460;-49
2022/12/08 09:25:08;;;;;;;;;204.50;166.50;;;;;3.38;100.00;99467.47;6281610;20;3654443;-49
2022/12/08 09:27:38;;;;;;;;;93.33;67.67;;;;;3.14;100.00;99451.47;6279588;20;3671102;-49
2022/12/08 09:30:08;;;;;;;;;95.67;67.33;;;;;2.93;100.00;99444.28;6278589;20;3671088;-49
2022/12/08 09:32:39;;;;;;;;;97.25;80.50;;;;;2.80;100.00;99443.81;6311143;20;3688890;-52
2022/12/08 09:35:08;;;;;;;;;92.33;72.00;;;;;3.17;100.00;99442.56;6311102;20;3674207;-52
2022/12/08 09:37:38;;;;;;;;;106.33;90.33;;;;;3.06;99.90;99434.97;6278652;20;3691002;-52
2022/12/08 09:40:16;;;;;;;;;79.00;59.33;;;;;3.21;100.00;99434.44;6280113;20;3646109;-49
2022/12/08 09:43:25;;;;;;;;;128.50;105.25;;;;;3.19;99.90;99430.09;6317746;20;3718032;-48
2022/12/08 09:45:56;;;;;;;;;101.67;90.67;;;;;2.83;100.00;99431.31;6315423;20;3688815;-51
2022/12/08 09:48:36;;;;;;;;;77.33;56.33;;;;;3.15;100.00;99428.47;6281418;20;3651448;-52
2022/12/08 09:51:07;;;;;;;;;72.67;57.00;;;;;2.96;100.00;99421.16;6314605;20;3622296;-52
2022/12/08 09:54:11;;;;;;;;;79.33;59.33;;;;;2.83;100.00;99407.47;6314505;20;3658616;-49
2022/12/08 09:56:41;;;;;;;;;80.33;59.33;;;;;3.21;100.00;99417.63;6314538;20;3650265;-50
2022/12/08 09:59:22;;;;;;;;;82.67;63.00;;;;;3.18;99.88;99423.91;6283631;20;2874312;-49
2022/12/08 10:01:52;;;;;;;;;86.00;64.33;;;;;3.18;100.00;99423.91;6317700;20;3646101;-52
2022/12/08 10:04:39;;;;;;;;;74.67;57.00;;;;;3.12;100.00;99421.50;6314759;20;3635724;-50
2022/12/08 10:07:48;;;;;;;;;74.00;54.33;;;;;3.16;100.00;99415.16;6315553;20;3641922;-50
2022/12/08 10:10:26;;;;;;;;;78.00;57.33;;;;;3.23;100.00;99387.47;6313459;20;3649225;-50
2022/12/08 10:13:33;;;;;;;;;66.67;54.00;;;;;2.99;100.00;99369.81;6317669;20;3625295;-53
2022/12/08 10:16:39;;;;;;;;;82.33;62.00;;;;;2.81;100.00;99376.63;6314650;20;3639902;-52
2022/12/08 10:19:24;;;;;;;;;79.00;57.00;;;;;3.24;100.00;99407.78;6313875;20;3648157;-54
2022/12/08 10:21:56;;;;;;;;;81.00;62.00;;;;;3.34;100.00;99423.38;6314448;20;2754449;-49
2022/12/08 10:24:37;;;;;;;;;84.33;65.33;;;;;3.39;99.99;99400.19;6312295;20;3632579;-51
2022/12/08 10:27:12;;;;;;;;;54.50;40.67;;;;;3.09;99.54;99342.03;6335347;20;3602346;-54
2022/12/08 10:29:40;;;;;;;;;65.50;51.00;;;;;3.25;100.00;99348.50;6316672;20;2875282;-49
2022/12/08 10:32:22;;;;;;;;;69.00;52.00;;;;;3.58;100.00;99397.69;6282084;20;3650287;-52
2022/12/08 10:35:05;;;;;;;;;71.67;51.67;;;;;3.55;99.31;99401.34;6316462;20;3643987;-54
2022/12/08 10:37:36;;;;;;;;;68.33;55.33;;;;;3.73;98.55;99395.31;6317621;20;2875339;-54
2022/12/08 10:40:12;;;;;;;;;62.67;50.00;;;;;3.43;97.20;99394.72;6313909;20;2860774;-54
2022/12/08 10:42:48;;;;;;;;;77.00;56.50;;;;;3.94;97.22;99384.81;6313701;20;2508708;-51
2022/12/08 10:45:20;;;;;;;;;66.67;52.67;;;;;3.63;97.70;99396.59;6282135;20;2885878;-52
2022/12/08 10:48:02;;;;;;;;;71.67;54.33;;;;;3.33;99.00;99387.16;6317454;20;3638815;-52
2022/12/08 10:50:51;;;;;;;;;63.67;50.00;;;;;3.72;99.66;99372.38;6312518;20;3630521;-54
2022/12/08 10:53:24;;;;;;;;;68.33;50.33;;;;;3.65;98.03;99359.38;6313351;20;3651285;-52
2022/12/08 10:56:03;;;;;;;;;64.33;48.33;;;;;3.51;97.98;99362.59;6313823;20;2885683;-50
2022/12/08 10:58:41;;;;;;;;;58.00;45.00;;;;;3.29;96.95;99367.81;6312861;20;2500331;-53
2022/12/08 11:01:35;;;;;;;;;62.50;50.00;;;;;3.74;97.84;99359.91;6285329;20;2872142;-52
2022/12/08 11:04:40;;;;;;;;;57.50;47.00;;;;;3.26;97.81;99359.97;6282577;20;2852386;-53
2022/12/08 11:07:10;;;;;;;;;65.33;49.67;;;;;3.51;97.94;99367.88;6284218;20;2891023;-52
2022/12/08 11:09:47;;;;;;;;;66.00;52.00;;;;;3.66;96.71;99362.00;6314236;20;2861092;-51
2022/12/08 11:12:20;;;;;;;;;61.50;50.50;;;;;3.70;97.47;99362.72;6283382;20;2870268;-52
2022/12/08 11:14:57;;;;;;;;;65.67;50.00;;;;;3.80;95.80;99369.41;6282000;20;2878480;-55
2022/12/08 11:17:38;;;;;;;;;70.33;51.67;;;;;3.93;96.21;99361.84;6312854;20;2887951;-53
2022/12/08 11:20:10;;;;;;;;;69.00;51.33;;;;;3.84;96.80;99365.69;6312550;20;2877477;-51
2022/12/08 11:22:54;;;;;;;;;62.50;52.00;;;;;3.58;96.93;99360.53;6315515;20;2858651;-50
2022/12/08 11:25:26;;;;;;;;;57.00;48.50;;;;;3.26;97.27;99363.47;6282964;20;2873290;-50
2022/12/08 11:28:00;;;;;;;;;63.00;48.50;;;;;3.38;98.46;99350.69;6285629;20;2868032;-50
2022/12/08 11:30:41;;;;;;;;;55.00;48.00;;;;;3.95;98.37;99352.88;6280895;20;2792110;-52
2022/12/08 11:33:19;;;;;;;;;69.67;53.00;;;;;3.90;96.98;99343.38;6313237;20;3640897;-52
2022/12/08 11:36:08;;;;;;;;;77.67;58.00;;;;;3.74;97.13;99343.97;6314862;20;3657536;-51